createdAt,value
2018-12-21T00:01:05.732Z,3.10
2018-12-21T00:03:47.364Z,2.85
2018-12-21T00:06:28.603Z,2.40
2018-12-21T00:09:10.300Z,2.70
2018-12-21T00:11:52.296Z,2.70
2018-12-21T00:14:33.985Z,2.70
2018-12-21T00:17:15.880Z,3.00
2018-12-21T00:19:57.399Z,2.75
2018-12-21T00:22:39.577Z,2.83
2018-12-21T00:25:21.365Z,3.52
2018-12-21T00:28:02.549Z,3.08
2018-12-21T00:30:43.004Z,3.15
2018-12-21T00:33:29.925Z,4.55
2018-12-21T00:36:16.424Z,4.22
2018-12-21T00:39:03.337Z,3.27
2018-12-21T00:41:43.597Z,3.00
2018-12-21T00:44:29.585Z,2.90
2018-12-21T00:47:14.132Z,2.70
2018-12-21T00:49:55.733Z,2.83
2018-12-21T00:52:37.425Z,3.17
2018-12-21T00:55:18.908Z,2.75
2018-12-21T00:58:00.603Z,3.30
2018-12-21T01:00:42.123Z,2.33
2018-12-21T01:03:23.986Z,2.50
2018-12-21T01:06:05.613Z,2.75
2018-12-21T01:08:47.468Z,2.40
2018-12-21T01:11:28.985Z,2.77
2018-12-21T01:14:10.547Z,2.30
2018-12-21T01:16:52.239Z,2.40
2018-12-21T01:19:34.474Z,2.50
2018-12-21T01:22:15.512Z,2.70
2018-12-21T01:24:56.901Z,2.85
2018-12-21T01:27:38.632Z,2.10
2018-12-21T01:30:20.894Z,2.30
2018-12-21T01:33:01.868Z,2.25
2018-12-21T01:35:42.843Z,2.45
2018-12-21T01:38:24.229Z,2.10
2018-12-21T01:41:06.021Z,2.10
2018-12-21T01:43:47.509Z,1.90
2018-12-21T01:46:29.040Z,2.50
2018-12-21T01:49:11.297Z,2.17
2018-12-21T01:51:52.524Z,2.15
2018-12-21T01:54:34.917Z,2.08
2018-12-21T01:57:16.885Z,2.00
2018-12-21T01:59:58.272Z,1.80
2018-12-21T02:02:39.686Z,2.85
2018-12-21T02:05:22.165Z,3.10
2018-12-21T02:08:03.344Z,3.00
2018-12-21T02:10:45.341Z,2.77
2018-12-21T02:13:27.158Z,2.33
2018-12-21T02:16:09.180Z,2.10
2018-12-21T02:18:50.683Z,2.50
2018-12-21T02:21:31.901Z,2.02
2018-12-21T02:24:13.288Z,2.12
2018-12-21T02:26:56.105Z,2.45
2018-12-21T02:29:37.690Z,2.55
2018-12-21T02:32:19.484Z,2.00
2018-12-21T02:35:00.969Z,2.10
2018-12-21T02:37:43.148Z,2.10
2018-12-21T02:40:24.454Z,1.95
2018-12-21T02:43:06.148Z,1.98
2018-12-21T02:45:47.735Z,2.67
2018-12-21T02:48:30.179Z,2.85
2018-12-21T02:51:11.937Z,2.20
2018-12-21T02:53:54.042Z,2.20
2018-12-21T02:56:35.325Z,1.85
2018-12-21T02:59:16.909Z,1.85
2018-12-21T03:01:59.623Z,2.20
2018-12-21T03:04:41.006Z,2.05
2018-12-21T03:07:22.391Z,2.10
2018-12-21T03:10:04.750Z,1.87
2018-12-21T03:12:46.798Z,1.92
2018-12-21T03:15:28.404Z,1.90
2018-12-21T03:18:10.188Z,1.98
2018-12-21T03:20:51.907Z,2.52
2018-12-21T03:23:33.433Z,1.90
2018-12-21T03:26:14.948Z,1.98
2018-12-21T03:28:56.638Z,1.82
2018-12-21T03:31:38.230Z,2.10
2018-12-21T03:34:19.918Z,2.05
2018-12-21T03:37:01.818Z,1.92
2018-12-21T03:39:43.534Z,1.60
2018-12-21T03:42:25.014Z,1.80
2018-12-21T03:45:06.095Z,2.10
2018-12-21T03:47:47.963Z,1.82
2018-12-21T03:50:29.654Z,1.75
2018-12-21T03:53:11.141Z,2.00
2018-12-21T03:55:53.359Z,2.00
2018-12-21T03:58:34.422Z,1.72
2018-12-21T04:01:16.344Z,2.02
2018-12-21T04:03:57.524Z,1.80
2018-12-21T04:06:39.497Z,1.80
2018-12-21T04:09:20.926Z,1.82
2018-12-21T04:12:02.679Z,1.60
2018-12-21T04:14:45.285Z,1.60
2018-12-21T04:17:26.772Z,1.77
2018-12-21T04:20:08.466Z,2.25
2018-12-21T04:22:50.797Z,1.62
2018-12-21T04:25:31.945Z,1.98
2018-12-21T04:28:13.841Z,1.70
2018-12-21T04:30:55.048Z,1.70
2018-12-21T04:33:36.712Z,1.80
2018-12-21T04:36:18.099Z,1.75
2018-12-21T04:38:59.612Z,1.80
2018-12-21T04:41:41.381Z,1.98
2018-12-21T04:44:23.271Z,1.95
2018-12-21T04:47:04.759Z,1.95
2018-12-21T04:49:46.478Z,2.10
2018-12-21T04:52:29.205Z,1.95
2018-12-21T04:55:10.989Z,2.45
2018-12-21T04:57:52.869Z,1.95
2018-12-21T05:00:34.345Z,1.90
2018-12-21T05:03:15.828Z,1.77
2018-12-21T05:05:57.529Z,2.00
2018-12-21T05:08:39.208Z,1.90
2018-12-21T05:11:20.832Z,2.30
2018-12-21T05:14:02.898Z,2.00
2018-12-21T05:16:45.103Z,2.05
2018-12-21T05:19:27.103Z,2.20
2018-12-21T05:22:08.487Z,1.75
2018-12-21T05:24:49.973Z,1.82
2018-12-21T05:27:31.661Z,2.10
2018-12-21T05:30:13.408Z,3.27
2018-12-21T05:32:54.841Z,1.90
2018-12-21T05:35:36.634Z,2.33
2018-12-21T05:38:18.608Z,2.00
2018-12-21T05:41:00.525Z,1.60
2018-12-21T05:43:42.409Z,1.60
2018-12-21T05:46:24.321Z,1.77
2018-12-21T05:49:06.113Z,2.00
2018-12-21T05:51:47.598Z,2.20
2018-12-21T05:54:30.110Z,1.80
2018-12-21T05:57:12.314Z,1.92
2018-12-21T05:59:53.592Z,2.20
2018-12-21T06:02:35.285Z,2.10
2018-12-21T06:05:16.772Z,2.58
2018-12-21T06:07:58.359Z,2.00
2018-12-21T06:10:40.152Z,2.30
2018-12-21T06:13:21.871Z,2.10
2018-12-21T06:16:03.373Z,2.08
2018-12-21T06:18:45.329Z,2.10
2018-12-21T06:21:26.512Z,2.05
2018-12-21T06:24:08.124Z,2.10
2018-12-21T06:26:49.795Z,2.15
2018-12-21T06:29:31.381Z,2.15
2018-12-21T06:32:13.067Z,2.27
2018-12-21T06:34:54.659Z,2.33
2018-12-21T06:37:36.355Z,2.33
2018-12-21T06:40:17.983Z,2.00
2018-12-21T06:42:59.730Z,2.15
2018-12-21T06:45:41.318Z,2.20
2018-12-21T06:48:23.009Z,1.82
2018-12-21T06:51:04.497Z,1.92
2018-12-21T06:53:46.084Z,2.20
2018-12-21T06:56:27.712Z,2.20
2018-12-21T06:59:09.063Z,1.92
2018-12-21T07:01:50.895Z,2.00
2018-12-21T07:04:32.349Z,1.80
2018-12-21T07:07:13.925Z,2.27
2018-12-21T07:09:55.653Z,1.80
2018-12-21T07:12:37.513Z,1.80
2018-12-21T07:15:19.345Z,2.30
2018-12-21T07:18:00.796Z,2.33
2018-12-21T07:20:42.484Z,2.42
2018-12-21T07:23:27.343Z,1.92
2018-12-21T07:26:07.606Z,1.92
2018-12-21T07:28:49.516Z,1.77
2018-12-21T07:31:31.105Z,1.98
2018-12-21T07:34:13.016Z,2.33
2018-12-21T07:36:54.372Z,2.27
2018-12-21T07:39:35.754Z,1.90
2018-12-21T07:42:17.959Z,2.05
2018-12-21T07:44:59.038Z,1.80
2018-12-21T07:47:42.059Z,2.20
2018-12-21T07:50:24.162Z,2.10
2018-12-21T07:53:05.132Z,2.45
2018-12-21T07:55:48.399Z,2.50
2018-12-21T07:58:29.745Z,2.73
2018-12-21T08:01:11.333Z,4.13
2018-12-21T08:03:53.024Z,1.80
2018-12-21T08:06:34.614Z,2.60
2018-12-21T08:09:16.237Z,2.60
2018-12-21T08:11:57.688Z,2.63
2018-12-21T08:14:39.379Z,4.87
2018-12-21T08:17:20.864Z,1.80
2018-12-21T08:20:02.785Z,2.03
2018-12-21T08:22:44.685Z,4.00
2018-12-21T08:25:26.031Z,1.90
2018-12-21T08:28:07.527Z,1.87
2018-12-21T08:30:49.545Z,2.23
2018-12-21T08:33:33.607Z,1.80
2018-12-21T08:36:15.194Z,2.10
2018-12-21T08:38:56.854Z,2.20
2018-12-21T08:41:38.341Z,1.90
2018-12-21T08:44:20.259Z,1.60
2018-12-21T08:47:01.106Z,1.60
2018-12-21T08:49:42.900Z,2.10
2018-12-21T08:52:24.062Z,2.00
2018-12-21T08:55:05.694Z,2.00
2018-12-21T08:57:46.522Z,1.87
2018-12-21T09:00:28.104Z,2.17
2018-12-21T09:03:10.234Z,1.70
2018-12-21T09:05:51.820Z,1.57
2018-12-21T09:08:33.939Z,1.57
2018-12-21T09:11:15.056Z,1.60
2018-12-21T09:13:56.779Z,1.90
2018-12-21T09:16:38.340Z,1.70
2018-12-21T09:19:19.834Z,1.60
2018-12-21T09:22:01.401Z,2.33
2018-12-21T09:24:42.953Z,2.20
2018-12-21T09:27:24.694Z,2.03
2018-12-21T09:30:06.308Z,1.80
2018-12-21T09:32:48.117Z,2.07
2018-12-21T09:35:30.426Z,1.47
2018-12-21T09:38:12.814Z,1.50
2018-12-21T09:40:55.645Z,2.00
2018-12-21T09:43:36.823Z,1.77
2018-12-21T09:46:18.516Z,1.50
2018-12-21T09:49:00.002Z,1.80
2018-12-21T09:51:41.623Z,2.40
2018-12-21T09:54:23.383Z,2.03
2018-12-21T09:57:04.973Z,1.83
2018-12-21T09:59:46.867Z,1.77
2018-12-21T10:02:35.777Z,1.60
2018-12-21T10:05:14.431Z,1.90
2018-12-21T10:07:55.832Z,2.30
2018-12-21T10:10:37.421Z,1.60
2018-12-21T10:13:19.253Z,1.80
2018-12-21T10:16:00.804Z,2.00
2018-12-21T10:18:42.598Z,2.20
2018-12-21T10:21:24.597Z,2.80
2018-12-21T10:24:05.879Z,2.50
2018-12-21T10:26:47.405Z,2.60
2018-12-21T10:29:29.053Z,2.93
2018-12-21T10:32:10.542Z,2.00
2018-12-21T10:34:52.131Z,1.70
2018-12-21T10:37:33.615Z,2.20
2018-12-21T10:40:15.130Z,3.57
2018-12-21T10:42:56.796Z,2.30
2018-12-21T10:45:41.764Z,2.60
2018-12-21T10:48:22.747Z,2.60
2018-12-21T10:51:03.710Z,2.70
2018-12-21T10:53:46.665Z,2.07
2018-12-21T10:56:28.046Z,2.60
2018-12-21T10:59:09.736Z,2.07
2018-12-21T11:01:51.466Z,2.10
2018-12-21T11:04:32.748Z,2.53
2018-12-21T11:07:14.063Z,2.40
2018-12-21T11:09:56.064Z,2.10
2018-12-21T11:12:37.237Z,2.80
2018-12-21T11:15:18.865Z,4.40
2018-12-21T11:18:00.416Z,2.47
2018-12-21T11:20:42.108Z,2.63
2018-12-21T11:23:23.801Z,2.40
2018-12-21T11:26:05.590Z,2.80
2018-12-21T11:28:47.282Z,2.90
2018-12-21T11:31:29.008Z,3.43
2018-12-21T11:34:10.817Z,2.90
2018-12-21T11:36:52.356Z,3.17
2018-12-21T11:39:33.949Z,3.33
2018-12-21T11:42:15.434Z,3.37
2018-12-21T11:44:57.062Z,2.93
2018-12-21T11:47:38.710Z,3.23
2018-12-21T11:50:20.402Z,3.30
2018-12-21T11:53:01.992Z,3.77
2018-12-21T11:55:43.480Z,3.60
2018-12-21T11:58:25.069Z,3.20
2018-12-21T12:01:06.553Z,3.60
2018-12-21T12:03:47.966Z,3.80
2018-12-21T12:06:29.627Z,3.27
2018-12-21T12:09:11.114Z,4.20
2018-12-21T12:11:52.642Z,3.27
2018-12-21T12:14:34.396Z,3.60
2018-12-21T12:17:16.085Z,3.80
2018-12-21T12:19:57.776Z,3.60
2018-12-21T12:22:39.467Z,3.77
2018-12-21T12:25:20.956Z,3.40
2018-12-21T12:28:02.643Z,4.07
2018-12-21T12:30:44.849Z,3.57
2018-12-21T12:33:26.028Z,3.20
2018-12-21T12:36:07.512Z,3.60
2018-12-21T12:38:49.203Z,3.70
2018-12-21T12:41:30.794Z,3.57
2018-12-21T12:44:13.048Z,3.60
2018-12-21T12:46:53.974Z,2.90
2018-12-21T12:49:35.662Z,2.93
2018-12-21T12:52:17.250Z,2.63
2018-12-21T12:57:42.600Z,3.23
2018-12-21T13:00:24.277Z,2.40
2018-12-21T13:03:06.584Z,2.60
2018-12-21T13:05:47.756Z,3.27
2018-12-21T13:08:29.344Z,2.93
2018-12-21T13:11:10.962Z,2.63
2018-12-21T13:13:52.623Z,2.80
2018-12-21T13:16:34.826Z,2.60
2018-12-21T13:19:15.803Z,2.43
2018-12-21T13:21:57.598Z,2.40
2018-12-21T13:24:39.186Z,2.30
2018-12-21T13:27:20.916Z,2.47
2018-12-21T13:30:02.463Z,2.10
2018-12-21T13:32:44.255Z,2.33
2018-12-21T13:35:26.193Z,2.37
2018-12-21T13:38:07.638Z,2.37
2018-12-21T13:40:48.817Z,2.13
2018-12-21T13:43:30.509Z,2.10
2018-12-21T13:46:12.305Z,2.00
2018-12-21T13:48:54.097Z,2.17
2018-12-21T13:51:36.068Z,2.40
2018-12-21T13:54:17.379Z,1.90
2018-12-21T13:56:59.398Z,2.30
2018-12-21T13:59:40.491Z,2.03
2018-12-21T14:02:22.450Z,2.70
2018-12-21T14:05:03.784Z,2.70
2018-12-21T14:07:45.625Z,1.90
2018-12-21T14:10:27.012Z,2.10
2018-12-21T14:13:08.702Z,2.57
2018-12-21T14:15:50.393Z,2.20
2018-12-21T14:18:31.986Z,1.83
2018-12-21T14:21:13.677Z,2.00
2018-12-21T14:23:55.697Z,2.40
2018-12-21T14:26:36.547Z,2.00
2018-12-21T14:29:18.362Z,2.40
2018-12-21T14:32:00.173Z,2.40
2018-12-21T14:34:42.770Z,2.60
2018-12-21T14:37:24.845Z,4.07
2018-12-21T14:40:06.869Z,4.60
2018-12-21T14:42:48.738Z,3.33
2018-12-21T14:45:42.921Z,2.60
2018-12-21T14:48:25.230Z,2.40
2018-12-21T14:51:06.715Z,3.40
2018-12-21T14:53:48.410Z,2.40
2018-12-21T14:56:30.202Z,3.00
2018-12-21T14:59:11.798Z,2.57
2018-12-21T15:01:53.404Z,2.53
2018-12-21T15:04:34.939Z,3.00
2018-12-21T15:07:17.174Z,2.50
2018-12-21T15:09:58.245Z,2.53
2018-12-21T15:12:39.936Z,2.63
2018-12-21T15:15:21.732Z,2.47
2018-12-21T15:18:03.627Z,2.40
2018-12-21T15:20:45.112Z,2.17
2018-12-21T15:23:26.721Z,2.50
2018-12-21T15:26:08.318Z,2.50
2018-12-21T15:28:49.981Z,2.60
2018-12-21T15:31:31.569Z,2.50
2018-12-21T15:34:13.258Z,2.27
2018-12-21T15:36:54.961Z,2.40
2018-12-21T15:39:36.744Z,2.90
2018-12-21T15:42:18.470Z,2.57
2018-12-21T15:45:00.179Z,1.97
2018-12-21T15:47:42.093Z,2.27
2018-12-21T15:50:23.424Z,2.83
2018-12-21T15:53:05.611Z,2.20
2018-12-21T15:55:54.569Z,2.40
2018-12-21T15:58:30.249Z,2.27
2018-12-21T16:01:11.940Z,2.50
2018-12-21T16:03:54.627Z,3.03
2018-12-21T16:06:36.525Z,2.23
2018-12-21T16:09:18.112Z,2.70
2018-12-21T16:11:59.803Z,2.27
2018-12-21T16:14:41.477Z,2.57
2018-12-21T16:17:23.007Z,2.60
2018-12-21T16:20:04.671Z,1.70
2018-12-21T16:22:46.469Z,2.00
2018-12-21T16:25:28.651Z,2.20
2018-12-21T16:28:09.643Z,3.10
2018-12-21T16:30:51.232Z,1.63
2018-12-21T16:33:33.026Z,1.90
2018-12-21T16:36:14.614Z,1.87
2018-12-21T16:38:56.306Z,2.10
2018-12-21T16:41:37.794Z,2.20
2018-12-21T16:44:19.521Z,2.30
2018-12-21T16:47:01.275Z,2.30
2018-12-21T16:49:42.966Z,3.10
2018-12-21T16:52:24.457Z,6.97
2018-12-21T16:55:06.168Z,3.90
2018-12-21T16:57:47.938Z,2.90
2018-12-21T17:00:29.791Z,2.73
2018-12-21T17:03:15.557Z,2.30
2018-12-21T17:05:55.879Z,3.35
2018-12-21T17:08:37.672Z,2.15
2018-12-21T17:11:19.263Z,2.07
2018-12-21T17:14:02.040Z,2.50
2018-12-21T17:16:43.632Z,2.35
2018-12-21T17:19:25.154Z,2.70
2018-12-21T17:22:07.189Z,2.85
2018-12-21T17:24:48.473Z,2.25
2018-12-21T17:27:30.435Z,2.03
2018-12-21T17:30:11.713Z,3.35
2018-12-21T17:32:53.303Z,2.20
2018-12-21T17:35:34.686Z,2.58
2018-12-21T17:38:16.485Z,2.70
2018-12-21T17:40:58.338Z,2.90
2018-12-21T17:43:39.758Z,3.07
2018-12-21T17:46:21.353Z,3.10
2018-12-21T17:49:02.941Z,3.22
2018-12-21T17:51:45.401Z,3.45
2018-12-21T17:54:28.094Z,3.08
2018-12-21T17:57:10.161Z,5.03
2018-12-21T17:59:51.647Z,4.05
2018-12-21T18:02:33.470Z,2.55
2018-12-21T18:05:14.827Z,2.95
2018-12-21T18:07:57.262Z,3.65
2018-12-21T18:10:39.026Z,3.00
2018-12-21T18:13:21.577Z,2.75
2018-12-21T18:16:05.464Z,2.77
2018-12-21T18:18:47.105Z,3.47
2018-12-21T18:21:28.798Z,3.98
2018-12-21T18:24:10.351Z,4.67
2018-12-21T18:26:51.732Z,3.92
2018-12-21T18:29:33.555Z,2.80
2018-12-21T18:32:14.911Z,3.55
2018-12-21T18:34:58.964Z,3.25
2018-12-21T18:37:40.547Z,4.55
2018-12-21T18:40:23.054Z,3.10
2018-12-21T18:43:04.749Z,3.25
2018-12-21T18:45:46.437Z,3.70
2018-12-21T18:48:27.954Z,3.72
2018-12-21T18:51:09.717Z,3.40
2018-12-21T18:53:51.485Z,3.60
2018-12-21T18:56:33.100Z,3.12
2018-12-21T18:59:14.486Z,2.92
2018-12-21T19:01:55.897Z,3.42
2018-12-21T19:04:37.559Z,3.65
2018-12-21T19:07:19.252Z,4.03
2018-12-21T19:10:00.843Z,3.52
2018-12-21T19:12:42.463Z,3.33
2018-12-21T19:15:24.016Z,3.40
2018-12-21T19:18:06.217Z,3.75
2018-12-21T19:20:47.398Z,3.83
2018-12-21T19:23:29.426Z,4.97
2018-12-21T19:26:10.576Z,3.87
2018-12-21T19:28:52.374Z,3.20
2018-12-21T19:31:34.405Z,3.25
2018-12-21T19:34:15.649Z,3.70
2018-12-21T19:36:57.238Z,6.53
2018-12-21T19:39:39.032Z,6.00
2018-12-21T19:42:20.415Z,5.12
2018-12-21T19:45:01.901Z,4.10
2018-12-21T19:47:43.495Z,4.03
2018-12-21T19:50:25.281Z,3.90
2018-12-21T19:53:07.282Z,3.85
2018-12-21T19:55:48.972Z,4.47
2018-12-21T19:58:31.280Z,4.33
2018-12-21T20:01:13.278Z,5.22
2018-12-21T20:03:54.866Z,6.08
2018-12-21T20:06:36.350Z,7.40
2018-12-21T20:09:17.940Z,7.65
2018-12-21T20:11:59.453Z,8.85
2018-12-21T20:14:41.219Z,10.13
2018-12-21T20:17:22.912Z,12.35
2018-12-21T20:20:04.805Z,11.75
2018-12-21T20:22:46.631Z,10.35
2018-12-21T20:25:29.353Z,12.10
2018-12-21T20:28:11.349Z,9.33
2018-12-21T20:30:53.004Z,8.43
2018-12-21T20:33:34.735Z,7.20
2018-12-21T20:36:16.693Z,6.30
2018-12-21T20:38:58.179Z,5.95
2018-12-21T20:41:40.134Z,5.80
2018-12-21T20:44:21.464Z,6.20
2018-12-21T20:47:03.751Z,6.22
2018-12-21T20:49:44.741Z,5.33
2018-12-21T20:52:26.353Z,4.45
2018-12-21T20:55:08.226Z,4.25
2018-12-21T20:57:49.711Z,4.00
2018-12-21T21:00:31.229Z,4.00
2018-12-21T21:03:12.784Z,3.35
2018-12-21T21:05:54.471Z,4.60
2018-12-21T21:08:35.936Z,3.83
2018-12-21T21:11:24.317Z,3.70
2018-12-21T21:14:01.086Z,3.70
2018-12-21T21:16:42.638Z,4.17
2018-12-21T21:19:24.364Z,3.08
2018-12-21T21:22:05.956Z,3.40
2018-12-21T21:24:47.475Z,3.30
2018-12-21T21:27:30.495Z,3.80
2018-12-21T21:30:13.209Z,3.42
2018-12-21T21:32:54.460Z,3.42
2018-12-21T21:35:37.174Z,3.35
2018-12-21T21:38:18.968Z,2.85
2018-12-21T21:41:00.353Z,3.20
2018-12-21T21:43:42.378Z,3.42
2018-12-21T21:46:23.528Z,2.95
2018-12-21T21:49:05.047Z,3.60
2018-12-21T21:51:46.606Z,3.52
2018-12-21T21:54:28.401Z,2.95
2018-12-21T21:57:11.669Z,2.83
2018-12-21T21:59:53.621Z,3.20
2018-12-21T22:02:35.008Z,3.58
2018-12-21T22:05:16.697Z,2.60
2018-12-21T22:07:58.901Z,3.40
2018-12-21T22:10:40.008Z,3.92
2018-12-21T22:13:21.466Z,3.30
2018-12-21T22:16:03.259Z,3.20
2018-12-21T22:18:46.760Z,3.10
2018-12-21T22:21:29.506Z,3.72
2018-12-21T22:24:11.914Z,4.15
2018-12-21T22:26:54.447Z,4.12
2018-12-21T22:29:36.642Z,3.40
2018-12-21T22:32:18.973Z,3.95
2018-12-21T22:35:01.038Z,3.75
2018-12-21T22:37:42.976Z,3.02
2018-12-21T22:40:25.950Z,3.50
2018-12-21T22:43:07.649Z,4.15
2018-12-21T22:45:49.855Z,3.85
2018-12-21T22:48:33.473Z,4.00
2018-12-21T22:51:15.278Z,4.15
2018-12-21T22:53:58.297Z,3.30
2018-12-21T22:56:41.019Z,3.37
2018-12-21T22:59:23.335Z,3.70
2018-12-21T23:02:06.034Z,4.25
2018-12-21T23:04:48.647Z,3.50
2018-12-21T23:07:30.985Z,3.75
2018-12-21T23:10:12.028Z,3.90
2018-12-21T23:12:53.718Z,3.17
2018-12-21T23:15:35.103Z,3.20
2018-12-21T23:18:16.013Z,3.98
2018-12-21T23:20:57.666Z,3.65
2018-12-21T23:23:39.355Z,3.25
2018-12-21T23:26:21.048Z,3.30
2018-12-21T23:29:03.460Z,3.17
2018-12-21T23:31:46.319Z,2.90
2018-12-21T23:34:28.169Z,2.70
2018-12-21T23:37:10.010Z,2.80
2018-12-21T23:39:51.038Z,2.70
2018-12-21T23:42:32.733Z,2.98
2018-12-21T23:45:15.680Z,4.10
2018-12-21T23:47:56.829Z,3.95
2018-12-21T23:50:38.726Z,3.20
2018-12-21T23:53:20.417Z,3.65
2018-12-21T23:56:02.340Z,3.10
2018-12-21T23:58:43.492Z,3.00
